Time;durP1;ratioP1;P1;durP2;ratioP2;P2;SDS_P1;SDS_P2;PMS_P1;PMS_P2;Temp;Humidity;BMP_temperature;BMP_pressure;BME280_temperature;BME280_humidity;BME280_pressure;Samples;Min_cycle;Max_cycle;Signal;HPM_P1;HPM_P2
2020/12/30 00:02:12;;;;;;;2.75;2.55;;;3.90;77.60;;;;;;4978343;28;20034;-69
2020/12/30 00:04:37;;;;;;;2.65;2.45;;;3.90;77.60;;;;;;4979288;28;20391;-68
2020/12/30 00:07:03;;;;;;;5.05;2.67;;;3.90;77.80;;;;;;4980676;28;20034;-68
2020/12/30 00:09:29;;;;;;;2.70;2.50;;;3.90;77.80;;;;;;4981216;28;20067;-69
2020/12/30 00:11:54;;;;;;;4.03;2.60;;;3.90;77.70;;;;;;4979540;28;20554;-69
2020/12/30 00:14:20;;;;;;;3.20;2.90;;;3.90;77.60;;;;;;4980333;28;20092;-69
2020/12/30 00:16:46;;;;;;;3.05;2.75;;;3.90;77.40;;;;;;4980530;28;20504;-69
2020/12/30 00:19:11;;;;;;;3.13;2.83;;;3.90;77.20;;;;;;4980972;28;20049;-68
2020/12/30 00:21:37;;;;;;;4.40;2.60;;;3.90;77.30;;;;;;4979444;28;20510;-69
2020/12/30 00:24:03;;;;;;;4.35;2.70;;;3.90;77.40;;;;;;4979936;28;20156;-67
2020/12/30 00:26:29;;;;;;;3.00;2.70;;;3.90;77.60;;;;;;4979934;28;20031;-68
2020/12/30 00:28:55;;;;;;;3.00;2.70;;;3.90;77.70;;;;;;4979189;28;20439;-69
2020/12/30 00:31:20;;;;;;;3.75;2.92;;;3.90;77.80;;;;;;4979825;28;20066;-67
2020/12/30 00:33:46;;;;;;;3.08;2.88;;;3.90;77.80;;;;;;4979688;28;20122;-68
2020/12/30 00:36:12;;;;;;;3.08;2.78;;;3.90;77.80;;;;;;4979496;28;20057;-68
2020/12/30 00:38:37;;;;;;;4.38;3.13;;;3.90;77.70;;;;;;4979379;28;20027;-69
2020/12/30 00:41:03;;;;;;;3.13;2.88;;;3.90;77.70;;;;;;4977657;28;20521;-69
2020/12/30 00:43:28;;;;;;;2.95;2.72;;;3.90;77.60;;;;;;4979812;28;20026;-67
2020/12/30 00:45:54;;;;;;;2.83;2.60;;;3.90;77.60;;;;;;4979786;28;20409;-69
2020/12/30 00:48:19;;;;;;;2.67;2.47;;;3.90;77.50;;;;;;4980104;28;20092;-69
2020/12/30 00:50:45;;;;;;;2.90;2.60;;;3.90;77.40;;;;;;4977362;28;20498;-69
2020/12/30 00:53:11;;;;;;;2.80;2.47;;;3.90;77.30;;;;;;4978980;28;20031;-68
2020/12/30 00:55:36;;;;;;;3.30;2.50;;;4.00;77.10;;;;;;4980015;28;20612;-68
2020/12/30 00:58:02;;;;;;;2.65;2.45;;;4.00;76.80;;;;;;4979897;28;20066;-69
2020/12/30 01:00:28;;;;;;;2.85;2.55;;;4.00;76.60;;;;;;4979398;28;20125;-69
2020/12/30 01:02:53;;;;;;;2.92;2.65;;;3.90;76.40;;;;;;4979473;28;20081;-69
2020/12/30 01:05:20;;;;;;;2.45;2.25;;;3.90;76.10;;;;;;4979980;28;20507;-68
2020/12/30 01:07:46;;;;;;;2.72;2.53;;;3.90;75.90;;;;;;4979051;28;20039;-68
2020/12/30 01:10:11;;;;;;;3.50;2.78;;;3.90;75.90;;;;;;4979564;28;20038;-68
2020/12/30 01:12:37;;;;;;;3.92;2.80;;;3.80;75.70;;;;;;4976908;28;20133;-69
2020/12/30 01:15:04;;;;;;;4.00;3.47;;;3.80;75.70;;;;;;4979818;28;20066;-68
2020/12/30 01:17:30;;;;;;;3.92;3.20;;;3.80;75.80;;;;;;4980653;28;20114;-68
2020/12/30 01:19:55;;;;;;;3.60;2.90;;;3.80;76.00;;;;;;4981958;28;20690;-68
2020/12/30 01:22:21;;;;;;;3.58;2.80;;;3.70;76.00;;;;;;4977837;28;20030;-67
2020/12/30 01:24:47;;;;;;;2.95;2.70;;;3.70;76.30;;;;;;4985039;28;20070;-69
2020/12/30 01:27:12;;;;;;;3.13;2.80;;;3.70;76.60;;;;;;4980179;28;20056;-68
2020/12/30 01:29:38;;;;;;;2.85;2.53;;;3.60;76.60;;;;;;4976935;28;20039;-68
2020/12/30 01:32:03;;;;;;;2.78;2.55;;;3.60;76.70;;;;;;4981664;28;20125;-65
2020/12/30 01:34:29;;;;;;;4.03;2.78;;;3.60;76.70;;;;;;4977546;28;20038;-68
2020/12/30 01:36:55;;;;;;;3.13;2.90;;;3.60;76.70;;;;;;4979257;28;20041;-68
2020/12/30 01:39:21;;;;;;;3.78;3.00;;;3.60;76.80;;;;;;4976885;28;21379;-68
2020/12/30 01:41:47;;;;;;;3.35;3.05;;;3.50;76.70;;;;;;4981802;28;20698;-68
2020/12/30 01:44:13;;;;;;;3.72;2.90;;;3.50;76.90;;;;;;4979914;28;20122;-68
2020/12/30 01:46:40;;;;;;;3.92;3.05;;;3.50;76.90;;;;;;4988919;28;20169;-68
2020/12/30 01:49:27;;;;;;;3.90;3.05;;;3.40;76.90;;;;;;4977057;28;20065;-67
2020/12/30 01:51:53;;;;;;;5.00;3.50;;;3.40;77.00;;;;;;4978094;28;20038;-68
2020/12/30 01:54:19;;;;;;;3.53;3.08;;;3.40;76.80;;;;;;4980022;28;20038;-67
2020/12/30 01:56:46;;;;;;;5.22;3.05;;;3.40;76.70;;;;;;4981146;28;20031;-68
2020/12/30 01:59:15;;;;;;;4.03;3.05;;;3.40;76.50;;;;;;4982314;28;20389;-65
2020/12/30 02:02:01;;;;;;;3.85;3.08;;;3.40;76.40;;;;;;4977758;28;20038;-68
2020/12/30 02:04:38;;;;;;;3.80;3.40;;;3.30;76.40;;;;;;4985446;28;20441;-69
2020/12/30 02:07:04;;;;;;;5.65;3.75;;;3.30;76.30;;;;;;4980221;28;20062;-66
2020/12/30 02:09:30;;;;;;;9.48;5.93;;;3.30;76.10;;;;;;4979902;28;20071;-66
2020/12/30 02:11:56;;;;;;;7.20;4.78;;;3.20;76.10;;;;;;4979554;28;20125;-68
2020/12/30 02:14:21;;;;;;;6.35;4.40;;;3.20;76.40;;;;;;4979182;28;20054;-67
2020/12/30 02:16:57;;;;;;;5.85;4.47;;;3.20;76.60;;;;;;4980817;28;20494;-68
2020/12/30 02:19:23;;;;;;;5.40;3.88;;;3.10;77.60;;;;;;4981847;28;21829;-68
2020/12/30 02:21:52;;;;;;;5.57;3.75;;;3.10;76.60;;;;;;4978687;28;20057;-67
2020/12/30 02:24:28;;;;;;;5.70;4.07;;;3.10;76.70;;;;;;4981819;28;20113;-67
2020/12/30 02:26:54;;;;;;;5.22;3.85;;;3.00;76.60;;;;;;4980473;28;20049;-67
2020/12/30 02:29:20;;;;;;;6.03;3.95;;;3.00;76.50;;;;;;4981244;28;20034;-67
2020/12/30 02:31:47;;;;;;;6.10;4.10;;;3.00;76.60;;;;;;4979471;28;20038;-68
2020/12/30 02:34:12;;;;;;;4.75;3.72;;;3.00;76.70;;;;;;4980818;28;20039;-66
2020/12/30 02:36:38;;;;;;;6.38;3.85;;;3.00;76.80;;;;;;4980840;28;20037;-65
2020/12/30 02:39:04;;;;;;;4.53;3.35;;;3.00;77.00;;;;;;4979973;28;20035;-68
2020/12/30 02:41:29;;;;;;;6.20;3.42;;;3.00;77.10;;;;;;4979014;28;20053;-67
2020/12/30 02:43:55;;;;;;;5.15;2.88;;;3.00;77.10;;;;;;4981581;28;20054;-68
2020/12/30 02:46:21;;;;;;;3.03;2.65;;;3.00;77.20;;;;;;4977917;28;20034;-69
2020/12/30 02:48:46;;;;;;;4.05;2.63;;;3.00;77.20;;;;;;4978455;28;20434;-65
2020/12/30 02:51:12;;;;;;;2.65;2.13;;;3.00;77.30;;;;;;4975809;28;20113;-68
2020/12/30 02:53:38;;;;;;;2.47;2.00;;;3.00;77.60;;;;;;4981119;28;20118;-68
2020/12/30 02:56:03;;;;;;;2.30;2.00;;;3.10;78.00;;;;;;4980786;28;20501;-67
2020/12/30 02:58:29;;;;;;;2.95;2.10;;;3.00;78.20;;;;;;4978149;28;20679;-67
2020/12/30 03:00:54;;;;;;;2.80;2.28;;;3.10;78.30;;;;;;4980861;28;20041;-67
2020/12/30 03:03:20;;;;;;;2.30;1.98;;;3.10;78.40;;;;;;4980253;28;20552;-68
2020/12/30 03:05:46;;;;;;;3.75;2.53;;;3.10;78.20;;;;;;4981381;28;20033;-68
2020/12/30 03:08:12;;;;;;;4.93;3.30;;;3.10;78.10;;;;;;4981711;28;20027;-69
2020/12/30 03:10:38;;;;;;;7.53;3.75;;;3.10;78.00;;;;;;4977878;28;20116;-68
2020/12/30 03:13:03;;;;;;;3.75;2.72;;;3.10;77.80;;;;;;4979904;28;20045;-68
2020/12/30 03:15:29;;;;;;;6.22;2.30;;;3.10;77.70;;;;;;4979933;28;20441;-67
2020/12/30 03:17:55;;;;;;;2.97;2.00;;;3.10;77.80;;;;;;4979638;28;20065;-69
2020/12/30 03:20:20;;;;;;;3.55;2.38;;;3.10;78.00;;;;;;4979897;28;20039;-68
2020/12/30 03:22:46;;;;;;;4.68;2.38;;;3.10;78.10;;;;;;4978588;28;20045;-68
2020/12/30 03:25:12;;;;;;;2.40;2.20;;;3.00;78.10;;;;;;4980911;28;20034;-68
2020/12/30 03:27:37;;;;;;;2.15;2.03;;;3.10;78.10;;;;;;4980574;28;20510;-67
2020/12/30 03:30:04;;;;;;;4.45;2.38;;;3.10;78.10;;;;;;4980107;28;20065;-67
2020/12/30 03:32:30;;;;;;;403.27;104.10;;;3.10;78.20;;;;;;4978750;28;20899;-67
2020/12/30 03:34:55;;;;;;;153.45;65.18;;;3.10;78.30;;;;;;4980114;28;20041;-68
2020/12/30 03:37:21;;;;;;;59.05;25.10;;;3.10;78.40;;;;;;4978965;28;20031;-68
2020/12/30 03:39:47;;;;;;;54.58;31.05;;;3.10;78.30;;;;;;4980315;28;20041;-68
2020/12/30 03:42:12;;;;;;;9.48;6.03;;;3.10;78.30;;;;;;4979379;28;20042;-69
2020/12/30 03:44:38;;;;;;;4.05;3.03;;;3.10;78.30;;;;;;4991577;28;20031;-68
2020/12/30 03:47:06;;;;;;;3.35;2.33;;;3.10;78.10;;;;;;4980401;28;20047;-68
2020/12/30 03:49:34;;;;;;;4.30;2.40;;;3.10;78.10;;;;;;4979654;28;20034;-70
2020/12/30 03:52:02;;;;;;;5.88;4.78;;;3.10;78.10;;;;;;4974725;28;20026;-69
2020/12/30 03:54:30;;;;;;;2.75;2.17;;;3.10;78.10;;;;;;4979021;28;20430;-68
2020/12/30 03:56:56;;;;;;;3.60;2.13;;;3.10;78.30;;;;;;4976869;28;20038;-67
2020/12/30 03:59:21;;;;;;;1.85;1.70;;;3.10;78.30;;;;;;4979671;28;20401;-68
2020/12/30 04:01:47;;;;;;;2.38;1.45;;;3.10;78.30;;;;;;4978067;28;20039;-69
2020/12/30 04:04:13;;;;;;;2.60;1.83;;;3.10;78.30;;;;;;4977631;28;20507;-67
2020/12/30 04:06:43;;;;;;;3.13;1.90;;;3.10;78.30;;;;;;4972145;28;20686;-68
2020/12/30 04:09:08;;;;;;;3.53;2.50;;;3.10;78.30;;;;;;4978064;28;20042;-68
2020/12/30 04:11:34;;;;;;;6.38;4.10;;;3.10;78.20;;;;;;4977273;28;20046;-69
2020/12/30 04:14:00;;;;;;;14.82;8.70;;;3.10;78.10;;;;;;4977391;28;20047;-68
2020/12/30 04:16:25;;;;;;;10.05;7.38;;;3.10;78.10;;;;;;4977655;28;20575;-70
2020/12/30 04:18:52;;;;;;;13.20;8.82;;;3.10;78.00;;;;;;4978361;28;20031;-67
2020/12/30 04:21:26;;;;;;;6.65;5.25;;;3.10;78.00;;;;;;4974419;28;20034;-67
2020/12/30 04:23:55;;;;;;;4.50;2.78;;;3.10;78.20;;;;;;4979034;28;20522;-68
2020/12/30 04:26:21;;;;;;;17.98;9.18;;;3.10;78.00;;;;;;4979158;28;20035;-69
2020/12/30 04:28:47;;;;;;;11.77;8.18;;;3.10;78.00;;;;;;4978641;28;20092;-68
2020/12/30 04:31:14;;;;;;;5.43;4.30;;;3.10;78.00;;;;;;4975199;28;20043;-67
2020/12/30 04:33:40;;;;;;;4.63;3.90;;;3.10;78.00;;;;;;4976794;28;20570;-68
2020/12/30 04:36:06;;;;;;;4.55;3.20;;;3.10;78.80;;;;;;4975731;28;20118;-69
2020/12/30 04:38:33;;;;;;;3.50;2.88;;;3.10;77.90;;;;;;4975102;28;20027;-68
2020/12/30 04:41:06;;;;;;;2.38;1.67;;;3.10;77.90;;;;;;4977002;28;20128;-68
2020/12/30 04:43:34;;;;;;;1.95;1.75;;;3.10;77.80;;;;;;4978209;28;20042;-67
2020/12/30 04:46:00;;;;;;;3.42;3.13;;;3.10;78.70;;;;;;4978916;28;20393;-67
2020/12/30 04:48:26;;;;;;;2.30;2.10;;;3.20;78.80;;;;;;4977411;28;20062;-68
2020/12/30 04:50:55;;;;;;;2.05;1.83;;;3.10;77.90;;;;;;4976859;28;20042;-68
2020/12/30 04:53:25;;;;;;;1.90;1.52;;;3.10;77.80;;;;;;4985972;28;20026;-68
2020/12/30 04:55:51;;;;;;;1.45;1.35;;;3.10;78.50;;;;;;4977241;28;20077;-68
2020/12/30 04:58:18;;;;;;;1.42;1.33;;;3.10;77.70;;;;;;4978008;28;20038;-67
2020/12/30 05:00:48;;;;;;;1.58;1.42;;;3.10;77.80;;;;;;4976394;28;20122;-67
2020/12/30 05:03:15;;;;;;;2.13;1.92;;;3.10;77.60;;;;;;4978080;28;20062;-68
2020/12/30 05:05:42;;;;;;;2.50;1.88;;;3.00;77.50;;;;;;4975992;28;20644;-68
2020/12/30 05:08:10;;;;;;;2.15;1.95;;;3.10;77.40;;;;;;4977611;28;20034;-68
2020/12/30 05:10:38;;;;;;;2.40;2.20;;;3.10;77.40;;;;;;4975084;28;20952;-67
2020/12/30 05:13:05;;;;;;;3.45;2.72;;;3.10;77.40;;;;;;4978491;28;20089;-68
2020/12/30 05:15:31;;;;;;;3.65;1.92;;;3.10;77.70;;;;;;4976320;28;20034;-68
2020/12/30 05:17:58;;;;;;;3.05;1.90;;;3.00;77.80;;;;;;4977194;28;20059;-67
2020/12/30 05:20:24;;;;;;;2.95;2.63;;;3.10;77.90;;;;;;4975647;28;20070;-69
2020/12/30 05:22:52;;;;;;;4.38;2.70;;;3.10;77.80;;;;;;4978812;28;20034;-67
2020/12/30 05:25:18;;;;;;;4.15;2.50;;;3.10;77.80;;;;;;4978434;28;20401;-67
2020/12/30 05:27:44;;;;;;;3.80;2.67;;;3.00;77.70;;;;;;4978979;28;20035;-68
2020/12/30 05:30:10;;;;;;;4.18;3.30;;;3.00;77.80;;;;;;4975136;28;20039;-68
2020/12/30 05:32:37;;;;;;;5.38;3.50;;;3.00;78.00;;;;;;4975555;28;20042;-68
2020/12/30 05:35:04;;;;;;;5.05;3.90;;;3.00;78.10;;;;;;4978420;28;20031;-68
2020/12/30 05:37:32;;;;;;;5.18;3.78;;;3.00;78.10;;;;;;4976687;28;20045;-67
2020/12/30 05:39:58;;;;;;;5.43;3.80;;;3.00;78.30;;;;;;4976567;28;20056;-69
2020/12/30 05:42:24;;;;;;;4.20;3.42;;;2.90;78.40;;;;;;4978907;28;20117;-67
2020/12/30 05:44:51;;;;;;;3.38;3.08;;;2.90;78.50;;;;;;4977057;28;20533;-65
2020/12/30 05:47:18;;;;;;;4.10;3.30;;;2.90;79.50;;;;;;4978935;28;20121;-67
2020/12/30 05:49:45;;;;;;;4.70;3.10;;;2.90;78.80;;;;;;4975897;28;20758;-66
2020/12/30 05:52:15;;;;;;;3.92;3.00;;;2.90;78.80;;;;;;4977159;28;20857;-69
2020/12/30 05:54:52;;;;;;;3.70;3.22;;;3.00;79.20;;;;;;4977285;28;20046;-68
2020/12/30 05:57:25;;;;;;;3.38;3.05;;;3.00;79.30;;;;;;4958922;28;20640;-68
2020/12/30 05:59:53;;;;;;;8.82;3.55;;;3.00;79.30;;;;;;4977121;28;20596;-67
2020/12/30 06:02:30;;;;;;;3.40;2.92;;;3.10;79.20;;;;;;4974968;28;20034;-68
2020/12/30 06:05:24;;;;;;;3.85;3.50;;;3.10;79.50;;;;;;4976134;28;20042;-67
2020/12/30 06:07:51;;;;;;;3.88;3.00;;;3.10;79.70;;;;;;4978148;28;20046;-68
2020/12/30 06:10:18;;;;;;;4.78;3.63;;;3.10;79.20;;;;;;4977967;28;20158;-68
2020/12/30 06:13:02;;;;;;;4.43;3.65;;;3.20;79.10;;;;;;4952715;28;20054;-68
2020/12/30 06:15:30;;;;;;;5.03;4.53;;;3.20;79.00;;;;;;4981165;28;20035;-67
2020/12/30 06:18:07;;;;;;;7.35;4.75;;;3.30;78.80;;;;;;4981641;28;20569;-67
2020/12/30 06:20:36;;;;;;;7.18;4.65;;;3.30;78.90;;;;;;4984954;28;20042;-68
2020/12/30 06:23:07;;;;;;;7.68;5.20;;;3.20;78.80;;;;;;4980566;28;20597;-67
2020/12/30 06:25:35;;;;;;;7.25;5.20;;;3.30;78.80;;;;;;4981144;28;20035;-68
2020/12/30 06:28:17;;;;;;;5.85;4.65;;;3.30;78.70;;;;;;4982527;28;20474;-68
2020/12/30 06:30:44;;;;;;;8.57;6.03;;;3.30;78.70;;;;;;4976666;28;20039;-68
2020/12/30 06:33:10;;;;;;;7.60;5.35;;;3.30;78.50;;;;;;4973852;28;20079;-68
2020/12/30 06:35:39;;;;;;;6.30;4.97;;;3.30;78.50;;;;;;4973864;28;20047;-67
2020/12/30 06:38:18;;;;;;;5.47;4.70;;;3.30;78.20;;;;;;4977732;28;20031;-69
2020/12/30 06:40:56;;;;;;;6.65;5.30;;;3.30;78.00;;;;;;4973967;28;20042;-68
2020/12/30 06:43:42;;;;;;;6.65;5.22;;;3.30;77.80;;;;;;4988582;28;21017;-67
2020/12/30 06:46:12;;;;;;;7.93;5.10;;;3.30;77.80;;;;;;4978121;28;20038;-67
2020/12/30 06:48:57;;;;;;;5.50;4.80;;;3.30;77.60;;;;;;4979356;28;20043;-69
2020/12/30 06:51:24;;;;;;;6.20;5.07;;;3.20;77.50;;;;;;4977051;28;20117;-68
2020/12/30 06:53:51;;;;;;;7.65;5.20;;;3.20;77.40;;;;;;4981203;28;20086;-68
2020/12/30 06:56:42;;;;;;;6.95;4.80;;;3.20;77.50;;;;;;4979998;28;20031;-68
2020/12/30 06:59:08;;;;;;;6.75;4.80;;;3.20;77.50;;;;;;4974102;28;20046;-68
2020/12/30 07:02:00;;;;;;;7.25;4.50;;;3.10;77.20;;;;;;4976187;28;20449;-68
2020/12/30 07:04:27;;;;;;;5.95;4.60;;;3.10;77.30;;;;;;4978141;28;20580;-68
2020/12/30 07:06:54;;;;;;;6.68;5.47;;;3.10;77.20;;;;;;4975141;28;20097;-67
2020/12/30 07:09:37;;;;;;;7.28;5.55;;;3.00;77.20;;;;;;4973661;28;20039;-68
2020/12/30 07:12:05;;;;;;;12.05;7.72;;;3.00;78.30;;;;;;4974099;28;20604;-68
2020/12/30 07:14:32;;;;;;;11.15;7.55;;;3.00;77.30;;;;;;4973464;28;20030;-68
2020/12/30 07:17:00;;;;;;;9.68;7.22;;;3.00;77.20;;;;;;4978195;28;20030;-68
2020/12/30 07:19:34;;;;;;;12.07;9.63;;;3.00;77.30;;;;;;4976799;28;20034;-67
2020/12/30 07:22:05;;;;;;;12.98;9.23;;;3.00;77.30;;;;;;4974941;28;20518;-67
2020/12/30 07:24:53;;;;;;;14.13;9.98;;;2.90;77.10;;;;;;4974280;28;20055;-68
2020/12/30 07:27:21;;;;;;;12.43;8.30;;;2.90;77.40;;;;;;4974025;28;20097;-67
2020/12/30 07:29:48;;;;;;;10.60;7.00;;;2.80;77.30;;;;;;4964189;28;20125;-68
2020/12/30 07:32:15;;;;;;;10.43;7.20;;;2.80;77.30;;;;;;4962058;28;20158;-67
2020/12/30 07:34:41;;;;;;;9.85;7.47;;;2.80;77.40;;;;;;4963454;28;20628;-68
2020/12/30 07:37:07;;;;;;;9.60;6.45;;;2.80;77.50;;;;;;4962325;28;20085;-68
2020/12/30 07:39:39;;;;;;;9.15;6.25;;;2.80;77.60;;;;;;4966458;28;20035;-67
2020/12/30 07:42:06;;;;;;;8.60;6.47;;;2.80;77.80;;;;;;4962052;28;20575;-67
2020/12/30 07:44:31;;;;;;;8.75;6.10;;;2.80;77.80;;;;;;4962101;28;20051;-67
2020/12/30 07:47:01;;;;;;;8.52;5.90;;;2.90;77.70;;;;;;4966127;28;20170;-68
2020/12/30 07:49:26;;;;;;;8.48;6.05;;;2.90;77.70;;;;;;4964260;28;20062;-70
2020/12/30 07:51:57;;;;;;;8.68;6.70;;;2.90;77.70;;;;;;4963411;28;20067;-69
2020/12/30 07:54:27;;;;;;;9.57;7.40;;;2.90;77.80;;;;;;4967004;28;20062;-68
2020/12/30 07:57:03;;;;;;;9.40;7.18;;;2.90;77.80;;;;;;4955783;28;20117;-70
2020/12/30 07:59:29;;;;;;;10.02;6.85;;;2.90;78.00;;;;;;4966814;28;20049;-70
2020/12/30 08:02:05;;;;;;;8.57;6.50;;;2.90;77.70;;;;;;4964863;28;20038;-67
2020/12/30 08:04:33;;;;;;;7.90;6.03;;;3.00;77.80;;;;;;4965067;28;20030;-67
2020/12/30 08:07:01;;;;;;;7.80;6.30;;;2.90;77.80;;;;;;4964975;28;21207;-68
2020/12/30 08:09:29;;;;;;;8.50;5.28;;;3.00;77.90;;;;;;4964185;28;20042;-70
2020/12/30 08:11:58;;;;;;;7.30;5.70;;;2.90;77.90;;;;;;4964358;28;20034;-67
2020/12/30 08:14:26;;;;;;;8.38;5.65;;;3.00;78.00;;;;;;4963534;28;20662;-69
2020/12/30 08:16:59;;;;;;;9.30;6.65;;;3.00;78.00;;;;;;4963157;28;20498;-68
2020/12/30 08:19:37;;;;;;;11.73;7.63;;;3.00;78.10;;;;;;4965670;28;20035;-69
2020/12/30 08:22:07;;;;;;;15.70;8.77;;;3.00;78.10;;;;;;4966989;28;20073;-68
2020/12/30 08:24:38;;;;;;;20.42;9.90;;;3.00;77.80;;;;;;4976375;28;20039;-67
2020/12/30 08:27:05;;;;;;;13.68;8.23;;;3.00;77.90;;;;;;4978127;28;20110;-69
2020/12/30 08:29:41;;;;;;;11.82;7.80;;;3.00;78.80;;;;;;4977759;28;20033;-68
2020/12/30 08:32:16;;;;;;;12.02;7.90;;;2.90;78.20;;;;;;4978992;28;20044;-69
2020/12/30 08:34:45;;;;;;;9.82;7.22;;;2.90;78.30;;;;;;4980031;28;20481;-68
2020/12/30 08:37:19;;;;;;;8.73;6.45;;;2.90;78.30;;;;;;4995016;28;20054;-67
2020/12/30 08:39:51;;;;;;;10.23;6.78;;;2.90;78.50;;;;;;4980741;28;21548;-68
2020/12/30 08:42:51;;;;;;;10.00;6.70;;;2.90;78.50;;;;;;4978688;28;20039;-69
2020/12/30 08:45:24;;;;;;;9.40;6.70;;;2.90;79.20;;;;;;4972240;28;20038;-69
2020/12/30 08:47:53;;;;;;;9.73;6.85;;;2.90;79.60;;;;;;4978676;28;20047;-69
2020/12/30 08:50:24;;;;;;;7.72;6.15;;;2.90;78.80;;;;;;4979970;28;20038;-68
2020/12/30 08:52:51;;;;;;;11.20;6.68;;;2.90;78.80;;;;;;4979392;28;20046;-67
2020/12/30 08:55:16;;;;;;;11.27;6.95;;;2.90;78.80;;;;;;4980023;28;20541;-67
2020/12/30 08:57:44;;;;;;;11.30;7.60;;;3.00;78.80;;;;;;4978457;28;20054;-67
2020/12/30 09:00:21;;;;;;;10.52;6.90;;;3.00;78.80;;;;;;4979997;28;20097;-67
2020/12/30 09:02:51;;;;;;;8.25;6.60;;;3.00;79.00;;;;;;4979539;28;20089;-69
2020/12/30 09:05:31;;;;;;;8.80;6.43;;;3.10;79.00;;;;;;4979937;28;20513;-68
2020/12/30 09:08:17;;;;;;;8.13;6.00;;;3.10;79.30;;;;;;4981609;28;20065;-69
2020/12/30 09:10:47;;;;;;;7.70;5.63;;;3.10;79.40;;;;;;4978577;28;20045;-69
2020/12/30 09:13:16;;;;;;;10.07;6.05;;;3.20;79.10;;;;;;4974765;28;20145;-68
2020/12/30 09:15:44;;;;;;;8.27;6.00;;;3.20;79.20;;;;;;4980968;28;20038;-69
2020/12/30 09:18:11;;;;;;;7.13;5.65;;;3.20;79.20;;;;;;4974624;28;20038;-69
2020/12/30 09:20:37;;;;;;;8.60;6.25;;;3.30;79.30;;;;;;4978861;28;20042;-68
2020/12/30 09:23:03;;;;;;;9.00;6.22;;;3.30;79.30;;;;;;4980193;28;20062;-69
2020/12/30 09:25:31;;;;;;;6.70;5.70;;;3.40;79.40;;;;;;4980031;28;20027;-69
2020/12/30 09:27:58;;;;;;;6.60;5.38;;;3.40;79.40;;;;;;4977543;28;20031;-68
2020/12/30 09:30:27;;;;;;;7.75;6.10;;;3.50;79.50;;;;;;4979946;28;20070;-68
2020/12/30 09:33:19;;;;;;;7.18;5.63;;;3.60;79.50;;;;;;4980861;28;20061;-68
2020/12/30 09:35:46;;;;;;;7.50;5.70;;;3.60;79.80;;;;;;4979770;28;20497;-68
2020/12/30 09:38:23;;;;;;;6.13;5.20;;;3.70;79.40;;;;;;4977820;28;20582;-68
2020/12/30 09:40:52;;;;;;;6.13;5.20;;;3.80;79.60;;;;;;4978221;28;20058;-67
2020/12/30 09:43:20;;;;;;;7.82;5.22;;;3.80;79.30;;;;;;4979487;28;20039;-67
2020/12/30 09:45:47;;;;;;;7.82;5.85;;;3.90;79.30;;;;;;4983468;28;20066;-67
2020/12/30 09:48:15;;;;;;;8.52;6.15;;;3.90;79.30;;;;;;4983897;28;20049;-66
2020/12/30 09:50:42;;;;;;;7.68;6.00;;;4.00;79.40;;;;;;4983570;28;20042;-67
2020/12/30 09:53:08;;;;;;;7.50;5.88;;;4.10;79.40;;;;;;4982889;28;20077;-66
2020/12/30 09:55:34;;;;;;;7.07;5.57;;;4.10;79.30;;;;;;4982390;28;20373;-67
2020/12/30 09:58:00;;;;;;;8.05;5.65;;;4.10;79.20;;;;;;4981890;28;20057;-66
2020/12/30 10:00:25;;;;;;;7.90;5.18;;;4.20;79.30;;;;;;4983704;28;20085;-66
2020/12/30 10:02:51;;;;;;;7.45;5.68;;;4.20;79.20;;;;;;4983767;28;20031;-66
2020/12/30 10:05:17;;;;;;;7.47;5.13;;;4.30;79.10;;;;;;4982536;28;20047;-66
2020/12/30 10:07:42;;;;;;;6.85;5.32;;;4.30;79.20;;;;;;4982702;28;20031;-65
2020/12/30 10:10:08;;;;;;;6.00;4.97;;;4.40;79.20;;;;;;4983047;28;20037;-66
2020/12/30 10:12:37;;;;;;;5.90;4.95;;;4.50;79.50;;;;;;4982021;28;20058;-67
2020/12/30 10:15:12;;;;;;;7.60;5.35;;;4.50;79.30;;;;;;4983332;28;20271;-66
2020/12/30 10:17:39;;;;;;;8.02;6.30;;;4.60;79.30;;;;;;4984289;28;20038;-66
2020/12/30 10:20:07;;;;;;;7.75;5.72;;;4.70;79.30;;;;;;4983422;28;20022;-67
2020/12/30 10:22:33;;;;;;;4.93;3.90;;;4.70;79.40;;;;;;4983793;28;20086;-66
2020/12/30 10:24:59;;;;;;;4.90;3.95;;;4.80;79.30;;;;;;4982489;28;20519;-66
2020/12/30 10:27:24;;;;;;;7.05;4.78;;;4.90;79.00;;;;;;4984366;28;20038;-67
2020/12/30 10:29:50;;;;;;;6.28;4.13;;;4.90;78.70;;;;;;4983903;28;20046;-66
2020/12/30 10:32:16;;;;;;;6.22;3.92;;;5.00;78.60;;;;;;4984051;28;20071;-67
2020/12/30 10:34:42;;;;;;;6.50;4.30;;;5.00;78.40;;;;;;4982578;28;20420;-66
2020/12/30 10:37:08;;;;;;;4.82;3.90;;;5.10;78.30;;;;;;4983450;28;20039;-66
2020/12/30 10:39:35;;;;;;;4.35;3.60;;;5.10;78.00;;;;;;4982971;28;20027;-66
2020/12/30 10:42:02;;;;;;;4.80;3.92;;;5.10;77.80;;;;;;4983414;28;20186;-66
2020/12/30 10:44:28;;;;;;;6.55;4.00;;;5.10;77.60;;;;;;4980818;28;20034;-67
2020/12/30 10:46:54;;;;;;;5.70;4.10;;;5.10;77.40;;;;;;4982039;28;20037;-66
2020/12/30 10:49:22;;;;;;;5.32;4.22;;;5.20;77.50;;;;;;4980658;28;20052;-65
2020/12/30 10:51:49;;;;;;;5.70;3.63;;;5.20;77.50;;;;;;4978303;28;20034;-67
2020/12/30 10:54:25;;;;;;;4.60;3.60;;;5.20;77.50;;;;;;4976934;28;22336;-67
2020/12/30 10:56:52;;;;;;;5.35;3.97;;;5.20;77.60;;;;;;4981708;28;20037;-67
2020/12/30 10:59:18;;;;;;;5.72;3.78;;;5.20;77.50;;;;;;4981461;28;20093;-67
2020/12/30 11:01:44;;;;;;;5.78;3.65;;;5.20;77.30;;;;;;4978511;28;20146;-66
2020/12/30 11:04:10;;;;;;;4.07;3.50;;;5.30;77.10;;;;;;4980065;28;20499;-66
2020/12/30 11:06:39;;;;;;;3.85;3.15;;;5.30;77.00;;;;;;4980522;28;20053;-67
2020/12/30 11:09:06;;;;;;;5.60;3.50;;;5.30;76.90;;;;;;4978380;28;20542;-67
2020/12/30 11:11:31;;;;;;;6.03;4.00;;;5.30;76.80;;;;;;4980456;28;20089;-66
2020/12/30 11:13:57;;;;;;;4.70;3.63;;;5.30;76.90;;;;;;4981250;28;20127;-67
2020/12/30 11:16:23;;;;;;;6.05;3.45;;;5.30;76.90;;;;;;4980180;28;20060;-67
2020/12/30 11:18:48;;;;;;;4.22;3.30;;;5.40;76.90;;;;;;4980899;28;20023;-68
2020/12/30 11:21:14;;;;;;;5.15;3.38;;;5.40;76.80;;;;;;4980671;28;20538;-67
2020/12/30 11:23:39;;;;;;;5.50;4.00;;;5.40;76.90;;;;;;4980099;28;20114;-67
2020/12/30 11:26:06;;;;;;;6.65;4.07;;;5.40;76.90;;;;;;4981245;28;20113;-67
2020/12/30 11:28:31;;;;;;;5.85;4.43;;;5.40;77.60;;;;;;4980407;28;20054;-66
2020/12/30 11:30:57;;;;;;;6.32;4.15;;;5.40;76.90;;;;;;4979978;28;20083;-67
2020/12/30 11:33:23;;;;;;;7.10;4.50;;;5.40;76.90;;;;;;4980685;28;20034;-67
2020/12/30 11:35:48;;;;;;;5.22;4.47;;;5.50;77.10;;;;;;4980511;28;20037;-67
2020/12/30 11:38:14;;;;;;;4.95;3.92;;;5.50;77.10;;;;;;4980442;28;20103;-68
2020/12/30 11:40:40;;;;;;;7.47;4.10;;;5.50;77.30;;;;;;4979554;28;20031;-67
2020/12/30 11:43:06;;;;;;;4.40;3.40;;;5.50;78.10;;;;;;4980168;28;20038;-67
2020/12/30 11:45:32;;;;;;;6.22;2.45;;;5.50;77.40;;;;;;4980273;28;20035;-67
2020/12/30 11:48:02;;;;;;;4.03;2.90;;;5.60;77.40;;;;;;4980573;28;20049;-67
2020/12/30 11:50:32;;;;;;;5.20;2.75;;;5.70;77.20;;;;;;4979872;28;20051;-67
2020/12/30 11:52:58;;;;;;;5.03;2.85;;;5.70;76.90;;;;;;4975879;28;20046;-66
2020/12/30 11:55:24;;;;;;;3.60;2.70;;;5.70;76.70;;;;;;4971541;28;20031;-67
2020/12/30 11:57:50;;;;;;;4.35;3.00;;;5.80;76.70;;;;;;4977738;28;20168;-67
2020/12/30 12:00:16;;;;;;;5.90;3.20;;;5.80;76.40;;;;;;4977004;28;20118;-68
2020/12/30 12:02:41;;;;;;;4.90;2.45;;;5.80;76.10;;;;;;4974689;28;20297;-68
2020/12/30 12:05:12;;;;;;;4.82;2.60;;;5.80;75.70;;;;;;4978316;28;20045;-67
2020/12/30 12:07:38;;;;;;;2.63;2.15;;;5.80;75.40;;;;;;4978102;28;20043;-68
2020/12/30 12:10:05;;;;;;;2.60;1.60;;;5.80;75.40;;;;;;4981361;28;20125;-67
2020/12/30 12:12:30;;;;;;;2.45;1.60;;;5.80;75.20;;;;;;4984664;28;20498;-67
2020/12/30 12:14:56;;;;;;;1.38;1.20;;;5.80;75.20;;;;;;4981441;28;20030;-68
2020/12/30 12:17:22;;;;;;;2.63;1.48;;;5.80;75.10;;;;;;4980256;28;20037;-68
2020/12/30 12:19:48;;;;;;;1.83;1.33;;;5.80;75.00;;;;;;4980972;28;20505;-67
2020/12/30 12:22:14;;;;;;;2.72;1.63;;;5.80;75.00;;;;;;4979753;28;20035;-67
2020/12/30 12:24:40;;;;;;;3.38;1.65;;;5.80;75.10;;;;;;4980764;28;20038;-67
2020/12/30 12:27:05;;;;;;;4.70;1.30;;;5.70;74.80;;;;;;4981126;28;20030;-67
2020/12/30 12:29:34;;;;;;;2.42;1.50;;;5.70;74.90;;;;;;4981728;28;20114;-67
2020/12/30 12:32:15;;;;;;;3.40;1.90;;;5.70;74.90;;;;;;4981928;28;20161;-67
2020/12/30 12:34:43;;;;;;;2.78;1.80;;;5.70;75.00;;;;;;4978400;28;20084;-67
2020/12/30 12:37:10;;;;;;;5.20;2.10;;;5.70;75.20;;;;;;4995382;28;20570;-66
2020/12/30 12:39:37;;;;;;;5.35;2.00;;;5.70;75.20;;;;;;4980312;28;20161;-68
2020/12/30 12:42:04;;;;;;;3.78;2.00;;;5.70;75.30;;;;;;4981339;28;20041;-65
2020/12/30 12:44:30;;;;;;;4.13;2.00;;;5.80;75.40;;;;;;4979031;28;20076;-66
2020/12/30 12:46:56;;;;;;;5.43;2.10;;;5.80;75.50;;;;;;4981971;28;20045;-65
2020/12/30 12:49:22;;;;;;;3.28;1.58;;;5.80;75.70;;;;;;4979092;28;20484;-65
2020/12/30 12:51:53;;;;;;;3.25;2.00;;;5.80;75.60;;;;;;4979452;28;20043;-64
2020/12/30 12:54:19;;;;;;;2.58;1.80;;;5.90;75.60;;;;;;4971895;28;20043;-65
2020/12/30 12:56:45;;;;;;;5.90;2.95;;;5.90;75.40;;;;;;4981054;28;20081;-66
2020/12/30 12:59:11;;;;;;;4.93;3.30;;;6.00;75.30;;;;;;4977370;28;20030;-65
2020/12/30 13:01:37;;;;;;;3.63;2.65;;;6.00;75.20;;;;;;4975667;28;20301;-65